Time;durP1;ratioP1;P1;durP2;ratioP2;P2;SDS_P1;SDS_P2;PMS_P1;PMS_P2;Temp;Humidity;BMP_temperature;BMP_pressure;BME280_temperature;BME280_humidity;BME280_pressure;Samples;Min_cycle;Max_cycle;Signal;HPM_P1;HPM_P2
2022/08/23 00:00:58;;;;;;;0.40;0.30;;;16.80;99.90;;;;;;6165314;23;20012;-76
2022/08/23 00:03:24;;;;;;;0.10;0.10;;;16.80;99.90;;;;;;6191855;23;20107;-75
2022/08/23 00:05:49;;;;;;;0.20;0.10;;;16.70;99.90;;;;;;6190757;23;20525;-75
2022/08/23 00:08:15;;;;;;;0.52;0.20;;;16.80;99.90;;;;;;6216492;23;20449;-75
2022/08/23 00:10:41;;;;;;;0.20;0.20;;;16.70;99.90;;;;;;6190819;23;20398;-75
2022/08/23 00:13:06;;;;;;;0.45;0.25;;;16.80;99.90;;;;;;6190735;23;20016;-75
2022/08/23 00:15:32;;;;;;;0.10;0.10;;;16.60;99.90;;;;;;6215913;23;20016;-74
2022/08/23 00:17:59;;;;;;;0.20;0.20;;;16.60;99.90;;;;;;6215806;23;20008;-75
2022/08/23 00:20:25;;;;;;;0.15;0.15;;;16.40;99.90;;;;;;6190471;23;20018;-76
2022/08/23 00:22:51;;;;;;;0.10;0.10;;;16.30;99.90;;;;;;6215210;23;20043;-76
2022/08/23 00:25:17;;;;;;;0.13;0.13;;;16.40;99.90;;;;;;6215997;23;20016;-76
2022/08/23 00:27:43;;;;;;;0.20;0.20;;;16.30;99.90;;;;;;6216337;23;20024;-75
2022/08/23 00:30:11;;;;;;;0.63;0.30;;;16.30;99.90;;;;;;6214999;23;20338;-75
2022/08/23 00:32:39;;;;;;;0.40;0.20;;;16.30;99.90;;;;;;6214709;23;20051;-76
2022/08/23 00:35:06;;;;;;;0.30;0.30;;;16.20;99.90;;;;;;6214303;23;20051;-76
2022/08/23 00:37:32;;;;;;;0.10;0.10;;;16.20;99.90;;;;;;6215144;23;20484;-75
2022/08/23 00:39:59;;;;;;;0.10;0.10;;;16.20;99.90;;;;;;6215816;23;20016;-75
2022/08/23 00:48:44;;;;;;;0.30;0.22;;;16.10;99.90;;;;;;6215921;23;20105;-76
2022/08/23 00:51:22;;;;;;;0.35;0.30;;;16.10;99.90;;;;;;6215363;23;20414;-74
2022/08/23 00:53:54;;;;;;;0.20;0.17;;;16.10;99.90;;;;;;6214889;23;20012;-74
2022/08/23 00:56:23;;;;;;;0.22;0.20;;;16.00;99.90;;;;;;6215466;23;20102;-75
2022/08/23 00:58:48;;;;;;;0.52;0.20;;;16.10;99.90;;;;;;6215297;23;20012;-75
2022/08/23 01:01:16;;;;;;;0.17;0.15;;;16.10;99.90;;;;;;6214781;23;20016;-75
2022/08/23 01:03:45;;;;;;;0.25;0.25;;;16.10;99.90;;;;;;6214826;23;20016;-76
2022/08/23 01:06:22;;;;;;;0.22;0.10;;;16.00;99.90;;;;;;6215043;23;20023;-76
2022/08/23 01:08:56;;;;;;;0.25;0.20;;;16.00;99.90;;;;;;6215158;23;20066;-75
2022/08/23 01:11:53;;;;;;;0.30;0.30;;;16.00;99.90;;;;;;6214835;23;20016;-76
2022/08/23 01:14:30;;;;;;;0.10;0.10;;;16.00;99.90;;;;;;6190349;23;20012;-75
2022/08/23 01:17:04;;;;;;;0.20;0.20;;;16.00;99.90;;;;;;6215562;23;20008;-76
2022/08/23 01:19:37;;;;;;;0.20;0.13;;;16.00;99.90;;;;;;6215274;23;20023;-76
2022/08/23 01:22:27;;;;;;;0.65;0.20;;;16.00;99.90;;;;;;6215673;23;20306;-76
2022/08/23 01:24:53;;;;;;;0.20;0.20;;;15.90;99.90;;;;;;6215348;23;20020;-76
2022/08/23 01:27:20;;;;;;;0.32;0.22;;;15.80;99.90;;;;;;6215248;23;20027;-76
2022/08/23 01:29:46;;;;;;;;;;;15.70;99.90;;;;;;6215256;23;20022;-76
2022/08/23 01:32:12;;;;;;;0.17;0.17;;;15.90;99.90;;;;;;6189654;23;19943;-76
2022/08/23 01:34:38;;;;;;;0.65;0.28;;;15.70;99.90;;;;;;6166335;23;20020;-81
2022/08/23 01:37:06;;;;;;;0.40;0.20;;;15.70;99.90;;;;;;6215677;23;20016;-80
2022/08/23 01:39:33;;;;;;;0.25;0.25;;;15.80;99.90;;;;;;6216021;23;20116;-80
2022/08/23 01:41:59;;;;;;;0.30;0.30;;;15.80;99.90;;;;;;6216471;23;20088;-80
2022/08/23 01:44:25;;;;;;;0.30;0.20;;;15.70;99.90;;;;;;6216368;23;20044;-80
2022/08/23 01:46:52;;;;;;;0.32;0.30;;;15.70;99.90;;;;;;6191870;23;20450;-80
2022/08/23 01:49:17;;;;;;;0.32;0.13;;;15.70;99.90;;;;;;6216641;23;20027;-81
2022/08/23 01:51:44;;;;;;;0.30;0.20;;;15.80;99.90;;;;;;6216365;23;20008;-80
2022/08/23 01:54:09;;;;;;;;;;;15.70;99.90;;;;;;6216848;23;20099;-81
2022/08/23 01:56:36;;;;;;;0.63;0.30;;;15.70;99.90;;;;;;6215737;23;19959;-81
2022/08/23 01:59:03;;;;;;;0.43;0.40;;;15.60;99.90;;;;;;6216164;23;20441;-80
2022/08/23 02:01:28;;;;;;;0.65;0.40;;;15.60;99.90;;;;;;6215807;23;20445;-81
2022/08/23 02:03:54;;;;;;;0.75;0.30;;;15.60;99.90;;;;;;6191209;23;20069;-81
2022/08/23 02:06:20;;;;;;;0.28;0.20;;;15.70;99.90;;;;;;6188656;23;20099;-81
2022/08/23 02:09:01;;;;;;;0.28;0.20;;;15.70;99.90;;;;;;6215199;23;20012;-80
2022/08/23 02:11:34;;;;;;;0.25;0.20;;;15.70;99.90;;;;;;6215038;23;20016;-80
2022/08/23 02:14:02;;;;;;;0.25;0.22;;;15.50;99.90;;;;;;6215694;23;20524;-81
2022/08/23 02:16:35;;;;;;;0.98;0.30;;;15.50;99.90;;;;;;6215247;23;20018;-81
2022/08/23 02:19:04;;;;;;;0.20;0.20;;;15.50;99.90;;;;;;6215334;23;20016;-81
2022/08/23 02:21:30;;;;;;;0.20;0.20;;;15.60;99.90;;;;;;6215276;23;20350;-81
2022/08/23 02:23:58;;;;;;;0.17;0.17;;;15.50;99.90;;;;;;6214718;23;20442;-80
2022/08/23 02:26:24;;;;;;;0.25;0.20;;;15.50;99.90;;;;;;6190312;23;20012;-81
2022/08/23 02:28:52;;;;;;;0.10;0.10;;;15.40;99.90;;;;;;6215409;23;20024;-80
2022/08/23 02:31:19;;;;;;;0.10;0.10;;;15.60;99.90;;;;;;6214989;23;20012;-80
2022/08/23 02:33:45;;;;;;;0.20;0.20;;;15.60;99.90;;;;;;6190509;23;20024;-81
2022/08/23 02:36:11;;;;;;;0.82;0.15;;;15.40;99.90;;;;;;6190204;23;20030;-81
2022/08/23 02:38:38;;;;;;;0.20;0.20;;;15.40;99.90;;;;;;6214622;23;20012;-81
2022/08/23 02:41:04;;;;;;;0.20;0.20;;;15.50;99.90;;;;;;6189999;23;20020;-81
2022/08/23 02:43:30;;;;;;;0.10;0.10;;;15.40;99.90;;;;;;6217509;23;20450;-81
2022/08/23 02:45:56;;;;;;;0.45;0.30;;;15.40;99.90;;;;;;6191476;23;20012;-81
2022/08/23 02:48:21;;;;;;;0.52;0.40;;;15.30;99.90;;;;;;6217065;23;20012;-81
2022/08/23 02:50:48;;;;;;;0.28;0.10;;;15.30;99.90;;;;;;6216979;23;20429;-80
2022/08/23 02:53:15;;;;;;;0.15;0.13;;;15.50;99.90;;;;;;6193004;23;20024;-81
2022/08/23 02:55:45;;;;;;;0.20;0.20;;;15.30;99.90;;;;;;6192222;23;20357;-80
2022/08/23 02:58:11;;;;;;;0.15;0.10;;;15.30;99.90;;;;;;6217447;23;20019;-80
2022/08/23 03:00:37;;;;;;;;;;;15.20;99.90;;;;;;6218394;23;20062;-80
2022/08/23 03:03:04;;;;;;;0.40;0.20;;;15.20;99.90;;;;;;6192878;23;19926;-81
2022/08/23 03:05:30;;;;;;;0.20;0.20;;;15.40;99.90;;;;;;6217999;23;20468;-81
2022/08/23 03:07:56;;;;;;;;;;;15.40;99.90;;;;;;6192379;23;20022;-81
2022/08/23 03:10:23;;;;;;;0.10;0.10;;;15.30;99.90;;;;;;6217229;23;20254;-80
2022/08/23 03:12:49;;;;;;;0.20;0.20;;;15.30;99.90;;;;;;6217961;23;20078;-79
2022/08/23 03:15:15;;;;;;;0.35;0.20;;;15.30;99.90;;;;;;6217973;23;20019;-80
2022/08/23 03:17:40;;;;;;;0.10;0.10;;;15.30;99.90;;;;;;6192042;23;20036;-80
2022/08/23 03:20:07;;;;;;;0.20;0.10;;;15.20;99.90;;;;;;6217409;23;20087;-81
2022/08/23 03:22:33;;;;;;;0.38;0.30;;;15.40;99.90;;;;;;6217822;23;20013;-81
2022/08/23 03:24:58;;;;;;;0.32;0.10;;;15.20;99.90;;;;;;6168039;23;20020;-80
2022/08/23 03:27:24;;;;;;;0.20;0.20;;;15.20;99.90;;;;;;6192901;23;20446;-80
2022/08/23 03:29:50;;;;;;;0.20;0.20;;;15.20;99.90;;;;;;6217206;23;20078;-80
2022/08/23 03:32:15;;;;;;;0.20;0.20;;;15.20;99.90;;;;;;6217788;23;20027;-80
2022/08/23 03:34:41;;;;;;;0.20;0.20;;;15.30;99.90;;;;;;6217050;23;20051;-80
2022/08/23 03:37:07;;;;;;;0.40;0.30;;;15.30;99.90;;;;;;6191902;23;20020;-80
2022/08/23 03:39:33;;;;;;;0.32;0.30;;;15.30;99.90;;;;;;6218756;23;20019;-79
2022/08/23 03:41:58;;;;;;;0.30;0.30;;;15.40;99.90;;;;;;6195028;23;20019;-81
2022/08/23 03:44:24;;;;;;;0.75;0.60;;;15.40;99.90;;;;;;6217118;23;20019;-81
2022/08/23 03:46:50;;;;;;;0.38;0.38;;;15.50;99.90;;;;;;6191703;23;20070;-81
2022/08/23 03:49:15;;;;;;;0.68;0.30;;;15.40;99.90;;;;;;6191923;23;20028;-80
2022/08/23 03:51:41;;;;;;;0.30;0.30;;;15.60;99.90;;;;;;6216658;23;20022;-80
2022/08/23 03:54:07;;;;;;;0.43;0.40;;;15.50;99.90;;;;;;6216452;23;20373;-81
2022/08/23 03:56:38;;;;;;;0.40;0.30;;;15.50;99.90;;;;;;6216650;23;20020;-81
2022/08/23 03:59:08;;;;;;;0.52;0.43;;;15.50;99.90;;;;;;6216685;23;20089;-80
2022/08/23 04:01:34;;;;;;;0.40;0.40;;;15.40;99.90;;;;;;6216848;23;20023;-80
2022/08/23 04:04:00;;;;;;;;;;;15.60;99.90;;;;;;6192831;23;20025;-81
2022/08/23 04:06:27;;;;;;;0.50;0.40;;;15.50;99.90;;;;;;6191336;23;19915;-80
2022/08/23 04:08:53;;;;;;;0.65;0.40;;;15.60;99.90;;;;;;6215595;23;20016;-79
2022/08/23 04:11:19;;;;;;;;;;;15.40;99.90;;;;;;6217165;23;20024;-80
2022/08/23 04:13:46;;;;;;;1.20;0.85;;;15.60;99.90;;;;;;6216932;23;19916;-81
2022/08/23 04:16:12;;;;;;;0.85;0.60;;;15.40;99.90;;;;;;6192374;23;20034;-79
2022/08/23 04:18:38;;;;;;;0.55;0.40;;;15.60;99.90;;;;;;6216365;23;20020;-81
2022/08/23 04:21:10;;;;;;;0.73;0.50;;;15.50;99.90;;;;;;6217300;23;20066;-81
2022/08/23 04:23:37;;;;;;;0.70;0.45;;;15.20;99.90;;;;;;6217176;23;20074;-80
2022/08/23 04:26:05;;;;;;;0.50;0.45;;;15.20;99.90;;;;;;6217099;23;20453;-81
2022/08/23 04:28:31;;;;;;;0.98;0.40;;;15.30;99.90;;;;;;6215108;23;20470;-81
2022/08/23 04:30:59;;;;;;;1.50;0.40;;;15.10;99.90;;;;;;6216660;23;20327;-81
2022/08/23 04:33:25;;;;;;;0.50;0.50;;;15.20;99.90;;;;;;6215929;23;20099;-81
2022/08/23 04:35:52;;;;;;;0.52;0.50;;;15.10;99.90;;;;;;6216731;23;20016;-81
2022/08/23 04:38:17;;;;;;;;;;;15.20;99.90;;;;;;6191423;23;20016;-81
2022/08/23 04:43:27;;;;;;;0.40;0.40;;;15.00;99.90;;;;;;6194695;23;20501;-80
2022/08/23 04:45:53;;;;;;;0.75;0.57;;;15.10;99.90;;;;;;6190362;23;20055;-80
2022/08/23 04:48:18;;;;;;;0.60;0.50;;;15.30;99.90;;;;;;6215759;23;20020;-80
2022/08/23 04:50:44;;;;;;;0.40;0.40;;;15.10;99.90;;;;;;6193672;23;20043;-81
2022/08/23 04:53:10;;;;;;;0.75;0.60;;;15.30;99.90;;;;;;6218510;23;20023;-79
2022/08/23 04:55:36;;;;;;;1.20;1.00;;;15.50;99.90;;;;;;6193490;23;20020;-82
2022/08/23 04:58:03;;;;;;;1.65;0.90;;;15.80;99.90;;;;;;6218858;23;20012;-81
2022/08/23 05:00:29;;;;;;;1.98;0.98;;;15.60;99.90;;;;;;6193359;23;20039;-81
2022/08/23 05:02:55;;;;;;;1.05;0.73;;;15.70;99.90;;;;;;6217799;23;20481;-81
2022/08/23 05:05:21;;;;;;;1.00;0.70;;;15.80;99.90;;;;;;6217850;23;20020;-80
2022/08/23 05:07:46;;;;;;;0.60;0.60;;;16.10;99.90;;;;;;6216493;23;20052;-80
2022/08/23 05:10:14;;;;;;;1.00;0.68;;;15.90;99.90;;;;;;6192069;23;20059;-81
2022/08/23 05:12:41;;;;;;;1.52;0.90;;;16.30;99.90;;;;;;6215688;23;20063;-75
2022/08/23 05:15:08;;;;;;;0.95;0.70;;;16.30;99.90;;;;;;6214303;23;20066;-75
2022/08/23 05:17:35;;;;;;;0.63;0.60;;;16.20;99.90;;;;;;6213377;23;20047;-75
2022/08/23 05:20:01;;;;;;;0.90;0.55;;;16.50;99.90;;;;;;6188888;23;20012;-76
2022/08/23 05:22:27;;;;;;;1.45;0.55;;;16.40;99.90;;;;;;6190035;23;20009;-76
2022/08/23 05:24:53;;;;;;;0.70;0.60;;;16.30;99.90;;;;;;6214323;23;20102;-75
2022/08/23 05:27:19;;;;;;;0.70;0.70;;;16.60;99.90;;;;;;6187558;23;20026;-76
2022/08/23 05:29:46;;;;;;;0.90;0.80;;;16.70;99.90;;;;;;6189600;23;20020;-76
2022/08/23 05:32:11;;;;;;;1.55;0.90;;;16.50;99.90;;;;;;6191665;23;20016;-82
2022/08/23 05:34:37;;;;;;;1.92;1.50;;;16.70;99.90;;;;;;6193702;23;20023;-81
2022/08/23 05:37:03;;;;;;;1.42;1.30;;;16.70;99.90;;;;;;6218252;23;20472;-81
2022/08/23 05:39:28;;;;;;;1.17;1.00;;;16.90;99.90;;;;;;6218044;23;20023;-82
2022/08/23 05:41:54;;;;;;;1.40;0.90;;;16.60;99.90;;;;;;6218787;23;20012;-81
2022/08/23 05:44:20;;;;;;;1.20;0.70;;;16.80;99.90;;;;;;6218992;23;20027;-81
2022/08/23 05:46:45;;;;;;;1.00;0.80;;;16.80;99.90;;;;;;6190784;23;20055;-82
2022/08/23 05:49:11;;;;;;;1.10;0.90;;;16.90;99.90;;;;;;6191675;23;20346;-82
2022/08/23 05:51:37;;;;;;;0.88;0.82;;;16.70;99.90;;;;;;6193575;23;20035;-82
2022/08/23 05:54:06;;;;;;;0.98;0.90;;;16.70;99.90;;;;;;6166442;23;20419;-84
2022/08/23 05:56:37;;;;;;;0.90;0.90;;;16.80;99.90;;;;;;6239495;23;20020;-83
2022/08/23 05:59:06;;;;;;;1.17;1.08;;;17.00;99.90;;;;;;6213849;23;20044;-83
2022/08/23 06:01:33;;;;;;;1.50;1.00;;;17.10;99.90;;;;;;6213460;23;20034;-83
2022/08/23 06:03:59;;;;;;;;;;;17.10;99.90;;;;;;6215615;23;20020;-83
2022/08/23 06:06:25;;;;;;;1.08;0.90;;;17.30;99.90;;;;;;6213475;23;20237;-83
2022/08/23 06:08:51;;;;;;;;;;;17.40;99.90;;;;;;6214050;23;20020;-81
2022/08/23 06:11:23;;;;;;;1.40;0.80;;;17.30;99.90;;;;;;6213780;23;19922;-84
2022/08/23 06:13:56;;;;;;;1.20;1.10;;;17.50;99.90;;;;;;6214813;23;20475;-83
2022/08/23 06:16:25;;;;;;;1.23;1.00;;;17.50;99.90;;;;;;6216099;23;20339;-83
2022/08/23 06:18:52;;;;;;;0.82;0.82;;;17.60;99.90;;;;;;6216865;23;20286;-82
2022/08/23 06:21:18;;;;;;;1.13;0.70;;;17.60;99.90;;;;;;6216228;23;20038;-83
2022/08/23 06:23:46;;;;;;;;;;;17.70;99.90;;;;;;6217654;23;20445;-75
2022/08/23 06:26:18;;;;;;;0.65;0.50;;;17.80;99.90;;;;;;6191614;23;20284;-75
2022/08/23 06:28:47;;;;;;;1.42;1.08;;;18.00;99.90;;;;;;6216785;23;20153;-74
2022/08/23 06:31:13;;;;;;;2.10;1.30;;;18.60;99.90;;;;;;6191300;23;20046;-74
2022/08/23 06:33:42;;;;;;;;;;;19.20;99.90;;;;;;6218011;23;20027;-73
2022/08/23 06:36:10;;;;;;;2.63;1.50;;;19.70;99.90;;;;;;6190650;23;19911;-73
2022/08/23 06:38:39;;;;;;;1.70;1.10;;;20.30;99.90;;;;;;6216108;23;20454;-74
2022/08/23 06:41:09;;;;;;;1.40;1.08;;;20.70;99.90;;;;;;6215147;23;20095;-75
2022/08/23 06:43:36;;;;;;;1.52;1.30;;;21.10;99.90;;;;;;6190289;23;20012;-75
2022/08/23 06:46:14;;;;;;;2.40;1.48;;;21.40;99.90;;;;;;6216725;23;20070;-75
2022/08/23 06:48:42;;;;;;;2.47;1.75;;;21.60;99.90;;;;;;6215989;23;20048;-75
2022/08/23 06:51:23;;;;;;;3.05;1.70;;;21.60;99.90;;;;;;6191390;23;20043;-76
2022/08/23 06:53:53;;;;;;;1.45;1.20;;;21.60;99.90;;;;;;6215748;23;20024;-74
2022/08/23 06:56:20;;;;;;;1.75;1.20;;;21.50;99.90;;;;;;6192194;23;20425;-75
2022/08/23 06:58:46;;;;;;;1.10;1.00;;;21.40;99.90;;;;;;6191798;23;20493;-74
2022/08/23 07:01:17;;;;;;;;;;;21.40;99.90;;;;;;6191135;23;20040;-75
2022/08/23 07:03:43;;;;;;;1.45;1.00;;;21.50;99.90;;;;;;6216150;23;19923;-75
2022/08/23 07:06:09;;;;;;;1.00;0.90;;;21.80;99.90;;;;;;6214560;23;20012;-75
2022/08/23 07:08:35;;;;;;;;;;;22.20;99.90;;;;;;6216165;23;20031;-75
2022/08/23 07:11:00;;;;;;;1.50;1.20;;;22.60;99.90;;;;;;6214582;23;19916;-74
2022/08/23 07:13:26;;;;;;;2.28;1.35;;;23.00;99.90;;;;;;6191102;23;20016;-75
2022/08/23 07:15:58;;;;;;;2.30;1.52;;;23.20;99.90;;;;;;6215937;23;20015;-76
2022/08/23 07:18:24;;;;;;;2.28;1.40;;;23.40;99.90;;;;;;6215254;23;20012;-76
2022/08/23 07:20:55;;;;;;;1.55;1.27;;;23.50;99.90;;;;;;6214895;23;20025;-76
2022/08/23 07:23:21;;;;;;;1.30;1.15;;;23.70;99.90;;;;;;6190572;23;20019;-75
2022/08/23 07:25:47;;;;;;;1.45;1.20;;;24.00;99.90;;;;;;6216710;23;20020;-75
2022/08/23 07:28:13;;;;;;;1.80;1.40;;;24.10;99.90;;;;;;6191185;23;20020;-76
2022/08/23 07:30:39;;;;;;;2.20;1.33;;;24.20;99.90;;;;;;6189632;23;20092;-75
2022/08/23 07:33:04;;;;;;;1.25;0.93;;;24.40;99.90;;;;;;6189462;23;20383;-75
2022/08/23 07:35:30;;;;;;;1.17;1.00;;;24.50;99.90;;;;;;6188098;23;20063;-75
2022/08/23 07:37:56;;;;;;;1.50;1.02;;;24.70;99.90;;;;;;6188084;23;20315;-75
2022/08/23 07:40:22;;;;;;;1.67;1.00;;;24.60;99.60;;;;;;6189689;23;20012;-75
2022/08/23 07:42:48;;;;;;;1.55;1.02;;;24.70;99.50;;;;;;6214684;23;20008;-75
2022/08/23 07:45:14;;;;;;;1.13;0.88;;;24.70;99.30;;;;;;6191132;23;20016;-75
2022/08/23 07:47:41;;;;;;;1.15;0.88;;;24.80;99.50;;;;;;6216555;23;20461;-75
2022/08/23 07:50:07;;;;;;;1.90;1.10;;;24.80;99.30;;;;;;6216573;23;20143;-75
2022/08/23 07:52:34;;;;;;;2.60;1.00;;;24.90;99.40;;;;;;6241921;23;20023;-75
2022/08/23 07:55:00;;;;;;;0.80;0.80;;;25.00;99.20;;;;;;6216549;23;20070;-75
2022/08/23 07:57:26;;;;;;;0.98;0.90;;;25.10;99.20;;;;;;6216616;23;20034;-75
2022/08/23 07:59:52;;;;;;;1.27;0.90;;;25.20;98.60;;;;;;6191881;23;20035;-75
2022/08/23 08:02:18;;;;;;;1.52;0.70;;;25.40;98.80;;;;;;6191531;23;20016;-74
2022/08/23 08:04:44;;;;;;;1.00;0.80;;;25.50;98.60;;;;;;6216691;23;20012;-75
2022/08/23 08:07:09;;;;;;;1.10;0.70;;;25.60;98.30;;;;;;6191368;23;20023;-75
2022/08/23 08:09:35;;;;;;;0.98;0.75;;;25.80;98.90;;;;;;6216268;23;20098;-76
2022/08/23 08:12:01;;;;;;;0.80;0.70;;;25.60;98.00;;;;;;6166711;23;20051;-75
2022/08/23 08:14:26;;;;;;;1.42;0.82;;;25.80;98.20;;;;;;6216574;23;20047;-76
2022/08/23 08:16:54;;;;;;;1.20;0.85;;;25.70;97.90;;;;;;6191275;23;20067;-75
2022/08/23 08:19:21;;;;;;;0.77;0.70;;;25.80;97.90;;;;;;6216763;23;20370;-75
2022/08/23 08:21:47;;;;;;;0.75;0.70;;;25.90;98.10;;;;;;6191179;23;20020;-75
2022/08/23 08:24:15;;;;;;;1.13;0.77;;;26.00;97.80;;;;;;6191194;23;20034;-75
2022/08/23 08:26:42;;;;;;;1.90;0.70;;;26.10;98.00;;;;;;6243612;23;20012;-75
2022/08/23 08:29:10;;;;;;;0.85;0.65;;;26.00;97.90;;;;;;6191447;23;20008;-75
2022/08/23 08:31:41;;;;;;;0.68;0.60;;;26.00;98.30;;;;;;6218275;23;20027;-75
2022/08/23 08:34:08;;;;;;;1.20;0.80;;;26.00;97.90;;;;;;6216140;23;20095;-75
2022/08/23 08:36:45;;;;;;;0.95;0.65;;;26.10;98.10;;;;;;6191154;23;20066;-75
2022/08/23 08:39:14;;;;;;;1.33;0.68;;;26.20;98.10;;;;;;6191026;23;20012;-75
2022/08/23 08:41:57;;;;;;;0.70;0.50;;;26.20;97.60;;;;;;6216105;23;20023;-76
2022/08/23 08:44:30;;;;;;;0.82;0.60;;;26.30;97.30;;;;;;6191197;23;20042;-76
2022/08/23 08:46:56;;;;;;;0.85;0.63;;;26.40;97.20;;;;;;6216139;23;20017;-75
2022/08/23 08:49:29;;;;;;;1.00;0.73;;;26.50;97.30;;;;;;6191383;23;20027;-75
2022/08/23 08:52:07;;;;;;;1.23;0.63;;;26.50;97.30;;;;;;6216104;23;20019;-75
2022/08/23 08:54:34;;;;;;;0.60;0.60;;;26.50;96.90;;;;;;6216610;23;20014;-75
2022/08/23 08:57:00;;;;;;;0.70;0.60;;;26.60;97.80;;;;;;6216011;23;20386;-75
2022/08/23 08:59:40;;;;;;;0.98;0.63;;;26.80;97.00;;;;;;6191010;23;20054;-75
2022/08/23 09:02:08;;;;;;;0.70;0.60;;;26.90;97.00;;;;;;6216080;23;20015;-76
2022/08/23 09:04:36;;;;;;;1.98;0.60;;;27.10;96.90;;;;;;6216134;23;20016;-75
2022/08/23 09:07:20;;;;;;;0.88;0.60;;;27.30;96.90;;;;;;6191242;23;20442;-75
2022/08/23 09:10:13;;;;;;;1.25;0.60;;;27.50;96.80;;;;;;6215767;23;20103;-76
2022/08/23 09:12:48;;;;;;;0.80;0.70;;;27.60;96.50;;;;;;6191017;23;20008;-76
2022/08/23 09:15:20;;;;;;;0.80;0.60;;;27.70;96.10;;;;;;6216395;23;20124;-76
2022/08/23 09:17:50;;;;;;;1.33;0.70;;;27.90;96.30;;;;;;6190717;23;20081;-76
2022/08/23 09:20:19;;;;;;;0.70;0.70;;;27.90;96.00;;;;;;6216051;23;20050;-76
2022/08/23 09:22:50;;;;;;;0.90;0.60;;;28.00;96.20;;;;;;6216039;23;20019;-76
2022/08/23 09:25:17;;;;;;;0.50;0.50;;;28.10;96.40;;;;;;6216182;23;20023;-76
2022/08/23 09:27:44;;;;;;;0.80;0.60;;;28.30;95.50;;;;;;6216174;23;20318;-76
2022/08/23 09:30:13;;;;;;;0.68;0.43;;;28.20;95.60;;;;;;6192173;23;20016;-76
2022/08/23 09:32:42;;;;;;;0.60;0.60;;;28.10;95.30;;;;;;6216789;23;20016;-77
2022/08/23 09:35:21;;;;;;;0.95;0.60;;;27.80;95.90;;;;;;6216938;23;20008;-76
2022/08/23 09:38:05;;;;;;;1.52;0.60;;;27.90;95.80;;;;;;6217374;23;20089;-77
2022/08/23 09:40:35;;;;;;;0.70;0.60;;;27.80;95.50;;;;;;6217224;23;20016;-77
2022/08/23 09:43:11;;;;;;;0.70;0.57;;;27.60;95.30;;;;;;6216657;23;20023;-76
2022/08/23 09:45:47;;;;;;;0.80;0.50;;;27.70;95.70;;;;;;6216033;23;20008;-76
2022/08/23 09:48:30;;;;;;;0.40;0.40;;;27.80;95.50;;;;;;6215991;23;20081;-76
2022/08/23 09:51:20;;;;;;;0.57;0.40;;;27.80;95.20;;;;;;6215742;23;20146;-76
2022/08/23 09:54:06;;;;;;;1.10;0.80;;;28.10;95.70;;;;;;6190942;23;20016;-76
2022/08/23 09:56:38;;;;;;;0.80;0.60;;;28.30;95.50;;;;;;6190496;23;20334;-76
2022/08/23 09:59:24;;;;;;;0.57;0.57;;;28.40;94.60;;;;;;6215547;23;20401;-76
2022/08/23 10:01:51;;;;;;;0.95;0.50;;;28.50;94.50;;;;;;6190466;23;20516;-76
2022/08/23 10:04:23;;;;;;;1.27;0.70;;;28.60;94.30;;;;;;6215629;23;20465;-75
2022/08/23 10:06:50;;;;;;;1.20;0.80;;;28.50;93.70;;;;;;6190622;23;20016;-75
2022/08/23 10:09:25;;;;;;;0.85;0.52;;;28.50;93.80;;;;;;6190352;23;20030;-75
2022/08/23 10:11:57;;;;;;;0.85;0.60;;;28.40;93.20;;;;;;6190311;23;20028;-76
2022/08/23 10:14:24;;;;;;;1.17;0.77;;;28.40;93.40;;;;;;6215717;23;20016;-75
2022/08/23 10:17:32;;;;;;;1.30;0.60;;;28.50;93.60;;;;;;6190357;23;20319;-75
2022/08/23 10:20:28;;;;;;;1.10;0.60;;;28.80;93.40;;;;;;6186034;23;20449;-75
2022/08/23 10:23:22;;;;;;;0.70;0.50;;;29.00;93.40;;;;;;6212735;23;20066;-76
2022/08/23 10:25:57;;;;;;;1.40;0.80;;;29.10;93.10;;;;;;6214027;23;20019;-76
2022/08/23 10:31:56;;;;;;;0.60;0.60;;;29.40;92.90;;;;;;6213064;23;20441;-76
2022/08/23 10:34:44;;;;;;;1.20;0.80;;;29.60;93.10;;;;;;6156532;23;20345;-77
2022/08/23 10:37:35;;;;;;;1.02;0.80;;;29.50;92.70;;;;;;6189108;23;20012;-76
2022/08/23 10:40:24;;;;;;;1.10;0.88;;;29.60;93.30;;;;;;6188734;23;20332;-75
2022/08/23 10:43:34;;;;;;;0.70;0.50;;;29.80;93.30;;;;;;6213320;23;20016;-75
2022/08/23 10:46:01;;;;;;;1.15;0.70;;;29.90;93.00;;;;;;6065076;23;20022;-75
2022/08/23 10:48:37;;;;;;;0.50;0.50;;;30.00;93.20;;;;;;6066146;23;20018;-75
2022/08/23 10:51:08;;;;;;;0.47;0.47;;;30.10;93.20;;;;;;6146612;23;20016;-76
2022/08/23 10:54:02;;;;;;;0.65;0.60;;;30.20;93.10;;;;;;6214335;23;20090;-76
2022/08/23 10:56:28;;;;;;;0.60;0.57;;;30.30;93.20;;;;;;6214823;23;20106;-76
2022/08/23 10:58:54;;;;;;;0.65;0.50;;;30.30;92.70;;;;;;6165457;23;20013;-76
2022/08/23 11:01:24;;;;;;;0.60;0.60;;;30.20;92.70;;;;;;6189734;23;20016;-76
2022/08/23 11:03:59;;;;;;;1.42;0.60;;;30.20;92.60;;;;;;6216342;23;20044;-76
2022/08/23 11:06:28;;;;;;;;;;;30.30;93.10;;;;;;6191657;23;20020;-75
2022/08/23 11:09:01;;;;;;;0.90;0.60;;;30.30;93.10;;;;;;6214643;23;19937;-75
2022/08/23 11:11:38;;;;;;;0.60;0.50;;;30.30;92.70;;;;;;6190129;23;20022;-76
2022/08/23 11:14:08;;;;;;;1.27;0.70;;;30.40;92.40;;;;;;6216587;23;20424;-76
2022/08/23 11:16:34;;;;;;;0.73;0.60;;;30.40;92.80;;;;;;6216918;23;20067;-76
2022/08/23 11:19:02;;;;;;;0.60;0.60;;;30.40;92.50;;;;;;6215590;23;20066;-77
2022/08/23 11:21:37;;;;;;;0.90;0.70;;;30.50;93.20;;;;;;6190910;23;20054;-76
2022/08/23 11:24:02;;;;;;;0.63;0.50;;;30.40;92.50;;;;;;6215963;23;20103;-75
2022/08/23 11:26:30;;;;;;;1.20;0.73;;;30.50;92.40;;;;;;6216276;23;20454;-78
2022/08/23 11:29:05;;;;;;;0.90;0.70;;;30.50;92.90;;;;;;6216333;23;20423;-77
2022/08/23 11:31:35;;;;;;;0.70;0.63;;;30.60;92.40;;;;;;6190354;23;20390;-78
2022/08/23 11:34:09;;;;;;;0.70;0.52;;;30.50;92.30;;;;;;6216302;23;20052;-78
2022/08/23 11:36:36;;;;;;;0.98;0.60;;;30.40;91.80;;;;;;6216789;23;20074;-78
2022/08/23 11:39:11;;;;;;;0.77;0.60;;;30.50;92.50;;;;;;6190042;23;20311;-77
2022/08/23 11:41:55;;;;;;;0.67;0.60;;;30.60;92.10;;;;;;6191779;23;20400;-76
2022/08/23 11:44:47;;;;;;;0.65;0.60;;;30.90;92.10;;;;;;6215949;23;20016;-75
2022/08/23 11:47:14;;;;;;;0.60;0.60;;;31.00;91.60;;;;;;6207440;23;20094;-75
2022/08/23 11:50:09;;;;;;;0.50;0.50;;;31.30;92.30;;;;;;6216464;23;20081;-75
2022/08/23 11:53:04;;;;;;;1.02;0.68;;;31.70;91.70;;;;;;6216367;23;20012;-75
2022/08/23 11:55:56;;;;;;;0.60;0.60;;;31.50;91.20;;;;;;6215907;23;20113;-76
2022/08/23 11:59:06;;;;;;;0.50;0.50;;;31.50;91.30;;;;;;6216077;23;20097;-75
2022/08/23 12:01:38;;;;;;;1.02;0.70;;;31.50;91.80;;;;;;6066353;23;20019;-75
2022/08/23 12:04:36;;;;;;;1.40;0.70;;;31.50;92.10;;;;;;6043402;23;20448;-76
2022/08/23 12:07:11;;;;;;;1.48;0.65;;;31.50;91.30;;;;;;6149848;23;20020;-76
2022/08/23 12:09:39;;;;;;;1.40;0.70;;;31.50;90.50;;;;;;6190476;23;20024;-76
2022/08/23 12:12:09;;;;;;;0.95;0.70;;;31.50;90.80;;;;;;6215224;23;20020;-76
2022/08/23 12:14:52;;;;;;;1.08;0.70;;;31.80;90.80;;;;;;6215206;23;20027;-76
2022/08/23 12:17:17;;;;;;;0.50;0.50;;;31.70;91.50;;;;;;6216057;23;20406;-76
2022/08/23 12:19:50;;;;;;;1.17;0.60;;;31.70;91.20;;;;;;6214597;23;20012;-76
2022/08/23 12:22:28;;;;;;;1.02;0.60;;;31.80;90.50;;;;;;6216472;23;20337;-76
2022/08/23 12:25:05;;;;;;;0.50;0.50;;;31.80;90.60;;;;;;6215989;23;20015;-76
2022/08/23 12:27:35;;;;;;;0.93;0.50;;;31.90;90.00;;;;;;6215661;23;20019;-76
2022/08/23 12:30:07;;;;;;;1.38;0.70;;;31.70;90.40;;;;;;6216625;23;20496;-75
2022/08/23 12:32:40;;;;;;;0.63;0.63;;;31.70;90.20;;;;;;6190427;23;20029;-74
2022/08/23 12:35:29;;;;;;;0.90;0.60;;;31.80;90.00;;;;;;6190915;23;20392;-75
2022/08/23 12:38:01;;;;;;;0.85;0.60;;;31.70;90.00;;;;;;6189927;23;20023;-74
2022/08/23 12:40:45;;;;;;;0.98;0.68;;;31.40;90.40;;;;;;6215411;23;20110;-74
2022/08/23 12:43:21;;;;;;;0.68;0.55;;;31.10;90.00;;;;;;6213636;23;20194;-75
2022/08/23 12:45:52;;;;;;;0.63;0.50;;;30.90;89.80;;;;;;6191186;23;20434;-75
2022/08/23 12:48:21;;;;;;;0.85;0.70;;;30.90;90.40;;;;;;6215515;23;20047;-75
2022/08/23 12:50:58;;;;;;;0.70;0.50;;;31.00;90.40;;;;;;6190185;23;20012;-75
2022/08/23 12:53:33;;;;;;;0.80;0.68;;;31.00;90.80;;;;;;6215707;23;20016;-75
2022/08/23 12:56:27;;;;;;;0.80;0.70;;;30.70;90.20;;;;;;6191129;23;20112;-74
2022/08/23 12:58:56;;;;;;;1.17;0.75;;;30.90;90.40;;;;;;6195881;23;20446;-75
2022/08/23 13:01:29;;;;;;;0.77;0.60;;;30.80;90.30;;;;;;6214896;23;20022;-75
2022/08/23 13:04:04;;;;;;;0.75;0.63;;;30.90;90.00;;;;;;6215234;23;20437;-75
2022/08/23 13:06:37;;;;;;;1.10;0.68;;;30.80;90.40;;;;;;6214840;23;20069;-75
2022/08/23 13:09:16;;;;;;;0.70;0.60;;;30.60;90.00;;;;;;6188400;23;20341;-74
2022/08/23 13:11:43;;;;;;;0.68;0.60;;;30.40;90.00;;;;;;6215453;23;20026;-74
2022/08/23 13:14:32;;;;;;;0.50;0.50;;;30.30;90.00;;;;;;6191203;23;20446;-74
2022/08/23 13:17:20;;;;;;;1.33;0.60;;;30.30;90.20;;;;;;6191619;23;20016;-75
2022/08/23 13:19:49;;;;;;;0.52;0.52;;;30.20;89.80;;;;;;6189838;23;20020;-75